KBGR/BGR METAR and TAF weather

Enter ICAO airport designator
Station Type Date Time Source
KBGR METAR 2020/09/22 18:53 UTC NOAA

KBGR 221853Z 35016G22KT 10SM BKN120 OVC150 17/01 A2988 RMK AO2 SLP119 T01670011


Station Type Date Time Source
KBGR Decoded METAR 2020/09/22 18:53 UTC NOAA

BANGOR INT'L AIRPORT, ME, United States (KBGR) 44-48N 068-49W 57M
Sep 22, 2020 - 02:53 PM EDT / 2020.09.22 1853 UTC
Wind: from the N (350 degrees) at 18 MPH (16 KT) gusting to 25 MPH (22 KT):0
Visibility: 10 mile(s):0
Sky conditions: overcast
Temperature: 62.1 F (16.7 C)
Dew Point: 34.0 F (1.1 C)
Relative Humidity: 34%
Pressure (altimeter): 29.88 in. Hg (1011 hPa)
ob: KBGR 221853Z 35016G22KT 10SM BKN120 OVC150 17/01 A2988 RMK AO2 SLP119 T01670011
cycle: 19

Station Type Date Time Source
KBGR TAF 2020/09/22 18:22 UTC NOAA

TAF KBGR 221720Z 2218/2318 01012G22KT P6SM BKN120
FM230000 01013G22KT P6SM VCSH OVC120 WS020/01030KT
FM230700 34013G22KT P6SM BKN120 WS020/00045KT
FM231400 32015G26KT P6SM BKN250

Example: see airport list